createdAt,value
2022-10-18T00:00:03.744Z,1018.4
2022-10-18T00:01:03.746Z,1018.5
2022-10-18T00:02:03.892Z,1018.4
2022-10-18T00:03:03.766Z,1018.5
2022-10-18T00:04:03.773Z,1018.5
2022-10-18T00:05:03.780Z,1018.5
2022-10-18T00:06:03.787Z,1018.5
2022-10-18T00:07:03.808Z,1018.4
2022-10-18T00:08:03.809Z,1018.4
2022-10-18T00:09:03.815Z,1018.5
2022-10-18T00:10:03.826Z,1018.5
2022-10-18T00:11:03.830Z,1018.5
2022-10-18T00:12:03.838Z,1018.4
2022-10-18T00:13:03.855Z,1018.5
2022-10-18T00:14:03.853Z,1018.4
2022-10-18T00:15:03.862Z,1018.4
2022-10-18T00:16:03.871Z,1018.5
2022-10-18T00:17:03.883Z,1018.5
2022-10-18T00:18:03.883Z,1018.5
2022-10-18T00:19:03.894Z,1018.6
2022-10-18T00:20:03.902Z,1018.5
2022-10-18T00:21:03.904Z,1018.5
2022-10-18T00:22:03.947Z,1018.5
2022-10-18T00:23:03.925Z,1018.5
2022-10-18T00:24:03.934Z,1018.5
2022-10-18T00:25:03.945Z,1018.5
2022-10-18T00:26:03.949Z,1018.5
2022-10-18T00:27:03.959Z,1018.6
2022-10-18T00:28:03.970Z,1018.6
2022-10-18T00:29:04.168Z,1018.5
2022-10-18T00:30:03.994Z,1018.6
2022-10-18T00:31:04.003Z,1018.6
2022-10-18T00:32:04.012Z,1018.6
2022-10-18T00:33:04.023Z,1018.7
2022-10-18T00:34:04.027Z,1018.6
2022-10-18T00:35:04.038Z,1018.6
2022-10-18T00:36:04.039Z,1018.6
2022-10-18T00:37:04.052Z,1018.5
2022-10-18T00:38:04.062Z,1018.8
2022-10-18T00:39:04.079Z,1018.7
2022-10-18T00:40:04.080Z,1018.7
2022-10-18T00:41:04.095Z,1018.7
2022-10-18T00:42:04.098Z,1018.7
2022-10-18T01:00:04.585Z,1018.8
2022-10-18T01:01:04.252Z,1018.8
2022-10-18T01:02:04.443Z,1018.8
2022-10-18T01:03:04.262Z,1018.7
2022-10-18T01:04:04.267Z,1018.7
2022-10-18T01:05:04.283Z,1018.8
2022-10-18T01:06:04.292Z,1018.7
2022-10-18T01:07:04.297Z,1018.8
2022-10-18T01:08:04.301Z,1018.7
2022-10-18T01:09:04.304Z,1018.7
2022-10-18T01:10:04.318Z,1018.7
2022-10-18T01:11:04.322Z,1018.8
2022-10-18T01:12:04.327Z,1018.8
2022-10-18T01:13:04.328Z,1018.7
2022-10-18T01:14:04.342Z,1018.8
2022-10-18T01:15:04.341Z,1018.7
2022-10-18T01:16:04.351Z,1018.9
2022-10-18T01:17:04.358Z,1018.8
2022-10-18T01:18:04.373Z,1018.8
2022-10-18T01:19:04.373Z,1018.8
2022-10-18T01:20:04.390Z,1018.8
2022-10-18T01:21:04.387Z,1018.8
2022-10-18T01:22:04.394Z,1018.8
2022-10-18T01:23:04.410Z,1018.8
2022-10-18T01:24:04.415Z,1018.8
2022-10-18T01:25:04.450Z,1018.8
2022-10-18T01:26:04.437Z,1018.7
2022-10-18T01:27:04.451Z,1018.7
2022-10-18T01:28:04.455Z,1018.8
2022-10-18T01:29:04.577Z,1018.7
2022-10-18T01:30:04.485Z,1018.8
2022-10-18T01:31:04.478Z,1018.8
2022-10-18T01:32:04.488Z,1018.7
2022-10-18T01:33:04.497Z,1018.8
2022-10-18T01:34:04.519Z,1018.8
2022-10-18T01:35:04.507Z,1018.8
2022-10-18T01:36:04.518Z,1018.8
2022-10-18T01:37:04.529Z,1018.8
2022-10-18T01:38:04.537Z,1018.8
2022-10-18T01:39:04.546Z,1018.8
2022-10-18T01:40:04.556Z,1018.8
2022-10-18T01:41:04.560Z,1018.8
2022-10-18T01:42:04.572Z,1018.8
2022-10-18T01:43:04.579Z,1018.8
2022-10-18T01:44:04.585Z,1018.8
2022-10-18T01:45:04.599Z,1018.8
2022-10-18T01:46:04.605Z,1018.8
2022-10-18T01:47:04.621Z,1018.9
2022-10-18T01:48:04.628Z,1018.8
2022-10-18T01:49:04.644Z,1018.8
2022-10-18T01:50:04.669Z,1018.7
2022-10-18T01:51:04.654Z,1018.8
2022-10-18T01:52:04.762Z,1018.8
2022-10-18T01:53:04.677Z,1018.9
2022-10-18T01:54:04.681Z,1018.8
2022-10-18T01:55:04.689Z,1018.8
2022-10-18T01:56:04.699Z,1018.9
2022-10-18T01:57:04.705Z,1018.9
2022-10-18T01:58:04.713Z,1018.9
2022-10-18T01:59:04.734Z,1018.9
2022-10-18T02:00:04.729Z,1018.9
2022-10-18T02:01:04.811Z,1018.9
2022-10-18T02:02:04.740Z,1019.0
2022-10-18T02:03:04.751Z,1018.9
2022-10-18T02:04:04.758Z,1018.8
2022-10-18T02:05:04.782Z,1018.9
2022-10-18T02:06:04.773Z,1018.9
2022-10-18T02:07:04.770Z,1018.9
2022-10-18T02:08:22.689Z,1019.0
2022-10-18T02:09:04.799Z,1019.0
2022-10-18T02:10:04.944Z,1019.0
2022-10-18T02:11:04.820Z,1019.1
2022-10-18T02:12:04.828Z,1019.0
2022-10-18T02:13:04.865Z,1019.0
2022-10-18T02:14:04.850Z,1018.9
2022-10-18T02:15:04.853Z,1019.0
2022-10-18T02:16:04.860Z,1019.0
2022-10-18T02:17:04.867Z,1019.0
2022-10-18T02:18:04.880Z,1019.0
2022-10-18T02:19:04.880Z,1018.9
2022-10-18T02:20:04.893Z,1018.9
2022-10-18T02:21:04.897Z,1018.9
2022-10-18T02:22:04.913Z,1019.0
2022-10-18T02:23:04.919Z,1019.0
2022-10-18T02:24:04.929Z,1019.0
2022-10-18T02:25:04.942Z,1019.0
2022-10-18T02:26:04.950Z,1019.0
2022-10-18T02:27:04.955Z,1018.9
2022-10-18T02:28:04.969Z,1018.9
2022-10-18T02:29:04.978Z,1018.8
2022-10-18T02:30:04.990Z,1018.9
2022-10-18T02:31:04.997Z,1018.9
2022-10-18T02:32:05.002Z,1018.9
2022-10-18T02:33:05.018Z,1018.8
2022-10-18T02:34:05.020Z,1018.9
2022-10-18T02:35:05.034Z,1018.9
2022-10-18T02:36:05.046Z,1018.9
2022-10-18T02:37:05.051Z,1018.8
2022-10-18T02:38:05.059Z,1018.8
2022-10-18T02:39:05.066Z,1018.9
2022-10-18T02:40:05.125Z,1018.8
2022-10-18T02:41:05.089Z,1018.9
2022-10-18T02:42:05.097Z,1018.9
2022-10-18T02:43:05.113Z,1018.9
2022-10-18T02:44:05.110Z,1018.9
2022-10-18T02:45:05.125Z,1018.8
2022-10-18T02:46:05.149Z,1018.9
2022-10-18T02:47:05.167Z,1018.8
2022-10-18T02:48:05.169Z,1018.9
2022-10-18T02:49:05.158Z,1018.9
2022-10-18T02:50:05.166Z,1018.9
2022-10-18T02:51:05.188Z,1018.9
2022-10-18T02:52:05.186Z,1018.8
2022-10-18T02:53:05.199Z,1018.8
2022-10-18T02:54:05.204Z,1018.8
2022-10-18T02:55:05.220Z,1018.8
2022-10-18T02:56:05.242Z,1018.8
2022-10-18T02:57:05.227Z,1018.7
2022-10-18T02:58:05.241Z,1018.8
2022-10-18T02:59:05.257Z,1018.8
2022-10-18T03:00:05.258Z,1018.9
2022-10-18T03:01:05.263Z,1018.7
2022-10-18T03:02:05.277Z,1018.8
2022-10-18T03:03:05.287Z,1018.9
2022-10-18T03:04:05.293Z,1018.9
2022-10-18T03:05:05.295Z,1018.8
2022-10-18T03:06:05.312Z,1018.9
2022-10-18T03:07:05.319Z,1018.8
2022-10-18T03:08:05.324Z,1018.9
2022-10-18T03:09:05.333Z,1018.8
2022-10-18T03:10:05.348Z,1018.8
2022-10-18T03:11:05.357Z,1018.8
2022-10-18T03:12:05.370Z,1018.8
2022-10-18T03:13:05.374Z,1018.7
2022-10-18T03:14:05.384Z,1018.8
2022-10-18T03:15:05.388Z,1018.8
2022-10-18T03:16:05.392Z,1018.7
2022-10-18T03:17:05.412Z,1018.7
2022-10-18T03:18:05.420Z,1018.7
2022-10-18T03:19:05.429Z,1018.8
2022-10-18T03:20:05.434Z,1018.7
2022-10-18T03:21:05.437Z,1018.8
2022-10-18T03:22:05.449Z,1018.7
2022-10-18T03:23:05.469Z,1018.7
2022-10-18T03:24:05.468Z,1018.7
2022-10-18T03:25:05.477Z,1018.7
2022-10-18T03:26:05.484Z,1018.7
2022-10-18T03:27:05.488Z,1018.6
2022-10-18T03:28:05.498Z,1018.7
2022-10-18T03:29:05.654Z,1018.7
2022-10-18T03:30:05.522Z,1018.7
2022-10-18T03:31:05.528Z,1018.6
2022-10-18T03:32:05.548Z,1018.7
2022-10-18T03:33:05.544Z,1018.7
2022-10-18T03:34:05.554Z,1018.7
2022-10-18T03:35:05.560Z,1018.7
2022-10-18T03:36:05.568Z,1018.7
2022-10-18T03:37:05.694Z,1018.7
2022-10-18T03:38:05.580Z,1018.6
2022-10-18T03:39:05.587Z,1018.7
2022-10-18T03:40:05.600Z,1018.6
2022-10-18T03:41:05.611Z,1018.6
2022-10-18T03:42:05.615Z,1018.6
2022-10-18T03:43:05.633Z,1018.7
2022-10-18T03:44:05.644Z,1018.7
2022-10-18T03:45:05.659Z,1018.6
2022-10-18T03:46:05.663Z,1018.8
2022-10-18T03:47:05.687Z,1018.8
2022-10-18T03:48:05.692Z,1018.8
2022-10-18T03:49:05.696Z,1018.7
2022-10-18T03:50:05.717Z,1018.9
2022-10-18T03:51:05.714Z,1018.8
2022-10-18T03:52:05.726Z,1018.8
2022-10-18T03:53:05.740Z,1018.8
2022-10-18T03:54:05.749Z,1018.7
2022-10-18T03:55:05.754Z,1018.7
2022-10-18T03:56:05.762Z,1018.7
2022-10-18T03:57:05.774Z,1018.6
2022-10-18T03:58:05.793Z,1018.6
2022-10-18T03:59:05.795Z,1018.6
2022-10-18T04:00:05.800Z,1018.6
2022-10-18T04:01:05.811Z,1018.6
2022-10-18T04:02:05.994Z,1018.6
2022-10-18T04:03:05.834Z,1018.5
2022-10-18T04:04:05.845Z,1018.5
2022-10-18T04:05:05.864Z,1018.6
2022-10-18T04:06:05.885Z,1018.5
2022-10-18T04:07:05.881Z,1018.5
2022-10-18T04:08:05.895Z,1018.6
2022-10-18T04:09:10.369Z,1018.6
2022-10-18T04:10:05.910Z,1018.5
2022-10-18T04:11:05.921Z,1018.5
2022-10-18T04:12:05.926Z,1018.5
2022-10-18T04:13:05.938Z,1018.6
2022-10-18T04:14:05.948Z,1018.6
2022-10-18T04:15:05.953Z,1018.6
2022-10-18T04:16:05.962Z,1018.7
2022-10-18T04:17:05.973Z,1018.6
2022-10-18T04:18:05.979Z,1018.6
2022-10-18T04:19:05.996Z,1018.6
2022-10-18T04:20:06.002Z,1018.6
2022-10-18T04:21:06.043Z,1018.6
2022-10-18T04:22:06.025Z,1018.5
2022-10-18T04:23:06.033Z,1018.6
2022-10-18T04:24:06.037Z,1018.5
2022-10-18T04:25:06.051Z,1018.5
2022-10-18T04:26:06.056Z,1018.6
2022-10-18T04:27:06.066Z,1018.5
2022-10-18T04:28:06.075Z,1018.5
2022-10-18T04:29:06.182Z,1018.5
2022-10-18T04:30:06.088Z,1018.5
2022-10-18T04:31:06.094Z,1018.6
2022-10-18T04:32:06.120Z,1018.5
2022-10-18T04:33:06.113Z,1018.4
2022-10-18T04:34:06.138Z,1018.4
2022-10-18T04:35:06.138Z,1018.5
2022-10-18T04:36:06.162Z,1018.4
2022-10-18T04:37:06.161Z,1018.5
2022-10-18T04:38:06.176Z,1018.5
2022-10-18T04:39:06.196Z,1018.6
2022-10-18T04:40:06.199Z,1018.5
2022-10-18T04:41:06.204Z,1018.5
2022-10-18T04:42:06.207Z,1018.4
2022-10-18T04:43:06.223Z,1018.5
2022-10-18T04:44:06.229Z,1018.5
2022-10-18T04:45:06.249Z,1018.5
2022-10-18T04:46:06.251Z,1018.5
2022-10-18T04:47:06.270Z,1018.5
2022-10-18T04:48:06.278Z,1018.4
2022-10-18T04:49:06.288Z,1018.4
2022-10-18T04:50:06.310Z,1018.3
2022-10-18T04:51:06.309Z,1018.3
2022-10-18T04:52:06.320Z,1018.4
2022-10-18T04:53:06.326Z,1018.4
2022-10-18T04:54:06.348Z,1018.3
2022-10-18T04:55:06.345Z,1018.3
2022-10-18T04:56:06.359Z,1018.3
2022-10-18T04:57:06.373Z,1018.4
2022-10-18T04:58:06.378Z,1018.4
2022-10-18T04:59:06.387Z,1018.4
2022-10-18T05:00:06.398Z,1018.4
2022-10-18T05:01:06.413Z,1018.4
2022-10-18T05:02:06.424Z,1018.5
2022-10-18T05:03:06.434Z,1018.4
2022-10-18T05:04:06.448Z,1018.4
2022-10-18T05:05:13.186Z,1018.5
2022-10-18T05:06:06.476Z,1018.5
2022-10-18T05:07:06.478Z,1018.5
2022-10-18T05:08:06.481Z,1018.5
2022-10-18T05:09:06.484Z,1018.5
2022-10-18T05:10:06.487Z,1018.5
2022-10-18T05:11:06.636Z,1018.5
2022-10-18T05:12:06.521Z,1018.5
2022-10-18T05:13:06.527Z,1018.4
2022-10-18T05:14:06.533Z,1018.5
2022-10-18T05:15:06.538Z,1018.5
2022-10-18T05:16:06.550Z,1018.5
2022-10-18T05:17:06.559Z,1018.5
2022-10-18T05:18:06.576Z,1018.6
2022-10-18T05:19:06.579Z,1018.5
2022-10-18T05:20:06.680Z,1018.5
2022-10-18T05:21:06.594Z,1018.6
2022-10-18T05:22:06.604Z,1018.5
2022-10-18T05:23:06.616Z,1018.5
2022-10-18T05:24:06.629Z,1018.4
2022-10-18T05:25:06.634Z,1018.5
2022-10-18T05:26:06.636Z,1018.3
2022-10-18T05:27:06.647Z,1018.3
2022-10-18T05:28:34.926Z,1018.3
2022-10-18T05:29:06.956Z,1018.4
2022-10-18T05:30:06.683Z,1018.4
2022-10-18T05:31:06.693Z,1018.3
2022-10-18T05:32:06.704Z,1018.3
2022-10-18T05:33:06.712Z,1018.4
2022-10-18T05:34:06.723Z,1018.4
2022-10-18T05:35:06.736Z,1018.4
2022-10-18T05:36:06.756Z,1018.4
2022-10-18T05:37:06.758Z,1018.5
2022-10-18T05:38:06.763Z,1018.5
2022-10-18T05:39:06.774Z,1018.4
2022-10-18T05:40:06.778Z,1018.5
2022-10-18T05:41:06.795Z,1018.5
2022-10-18T05:42:06.792Z,1018.5
2022-10-18T05:43:06.805Z,1018.4
2022-10-18T05:44:06.862Z,1018.5
2022-10-18T05:45:06.835Z,1018.5
2022-10-18T05:46:14.979Z,1018.5
2022-10-18T05:47:06.876Z,1018.5
2022-10-18T05:48:06.854Z,1018.5
2022-10-18T05:49:06.876Z,1018.5
2022-10-18T05:50:06.869Z,1018.5
2022-10-18T05:51:06.886Z,1018.5
2022-10-18T05:52:06.899Z,1018.5
2022-10-18T05:53:35.066Z,1018.5
2022-10-18T05:54:06.899Z,1018.6
2022-10-18T05:55:06.909Z,1018.6
2022-10-18T05:56:06.936Z,1018.6
2022-10-18T05:57:06.927Z,1018.6
2022-10-18T05:58:06.935Z,1018.6
2022-10-18T05:59:06.962Z,1018.5
2022-10-18T06:00:06.965Z,1018.6
2022-10-18T06:01:06.978Z,1018.6
2022-10-18T06:02:07.105Z,1018.6
2022-10-18T06:03:06.995Z,1018.6
2022-10-18T06:04:06.980Z,1018.6
2022-10-18T06:05:07.009Z,1018.6
2022-10-18T06:06:07.025Z,1018.7
2022-10-18T06:07:07.071Z,1018.8
2022-10-18T06:08:10.532Z,1018.8
2022-10-18T06:09:07.026Z,1018.8
2022-10-18T06:10:07.031Z,1018.7
2022-10-18T06:11:07.081Z,1018.8
2022-10-18T06:12:07.071Z,1018.7
2022-10-18T06:13:07.096Z,1018.7
2022-10-18T06:14:07.087Z,1018.7
2022-10-18T06:15:07.126Z,1018.7
2022-10-18T06:16:07.127Z,1018.7
2022-10-18T06:17:07.133Z,1018.7
2022-10-18T06:18:07.130Z,1018.7
2022-10-18T06:19:07.162Z,1018.8
2022-10-18T06:20:07.146Z,1018.7
2022-10-18T06:21:07.151Z,1018.8
2022-10-18T06:22:07.158Z,1018.8
2022-10-18T06:23:07.166Z,1018.8
2022-10-18T06:24:07.204Z,1018.7
2022-10-18T06:25:07.191Z,1018.8
2022-10-18T06:26:07.208Z,1018.7
2022-10-18T06:27:07.241Z,1018.7
2022-10-18T06:28:11.588Z,1018.8
2022-10-18T06:29:07.330Z,1018.8
2022-10-18T06:30:07.276Z,1018.8
2022-10-18T06:31:07.278Z,1018.8
2022-10-18T06:32:07.265Z,1018.7
2022-10-18T06:33:07.275Z,1018.7
2022-10-18T06:34:07.277Z,1018.7
2022-10-18T06:35:07.275Z,1018.7
2022-10-18T18:49:32.244Z,1020.5
2022-10-18T18:50:31.416Z,1020.5
2022-10-18T18:51:31.416Z,1020.5
2022-10-18T18:52:32.080Z,1020.5
2022-10-18T18:53:31.435Z,1020.5
2022-10-18T18:54:31.430Z,1020.5
2022-10-18T18:55:31.438Z,1020.4
2022-10-18T18:56:31.444Z,1020.4
2022-10-18T18:57:32.118Z,1020.4
2022-10-18T18:58:31.458Z,1020.3
2022-10-18T18:59:31.466Z,1020.4
2022-10-18T19:00:31.475Z,1020.4
2022-10-18T19:01:31.661Z,1020.4
2022-10-18T19:02:31.481Z,1020.4
2022-10-18T19:03:31.489Z,1020.4
2022-10-18T19:04:31.503Z,1020.4
2022-10-18T19:05:31.510Z,1020.4
2022-10-18T19:06:31.512Z,1020.3
2022-10-18T19:07:32.292Z,1020.4
2022-10-18T19:08:31.524Z,1020.4
2022-10-18T19:09:31.527Z,1020.5
2022-10-18T19:10:31.534Z,1020.5
2022-10-18T19:11:31.542Z,1020.4
2022-10-18T19:12:31.544Z,1020.5
2022-10-18T19:13:31.556Z,1020.3
2022-10-18T19:14:31.561Z,1020.5
2022-10-18T19:15:31.570Z,1020.5
2022-10-18T19:16:31.581Z,1020.5
2022-10-18T19:17:32.259Z,1020.5
2022-10-18T19:18:31.595Z,1020.6
2022-10-18T19:19:31.590Z,1020.6
2022-10-18T19:20:31.607Z,1020.5
2022-10-18T19:21:31.604Z,1020.5
2022-10-18T19:22:31.608Z,1020.5
2022-10-18T19:23:31.817Z,1020.6
2022-10-18T19:24:31.629Z,1020.6
2022-10-18T19:25:31.631Z,1020.6
2022-10-18T19:26:31.643Z,1020.5
2022-10-18T19:27:32.264Z,1020.5
2022-10-18T19:28:31.734Z,1020.5
2022-10-18T19:29:31.663Z,1020.5
2022-10-18T19:30:31.661Z,1020.6
2022-10-18T19:31:31.687Z,1020.6
2022-10-18T19:32:31.681Z,1020.5
2022-10-18T19:33:48.217Z,1020.5
2022-10-18T19:34:31.693Z,1020.5
2022-10-18T19:35:31.698Z,1020.6
2022-10-18T19:36:31.716Z,1020.5
2022-10-18T19:37:32.705Z,1020.6
2022-10-18T19:38:31.735Z,1020.6
2022-10-18T19:39:31.735Z,1020.6
2022-10-18T19:40:31.749Z,1020.7
2022-10-18T19:41:31.782Z,1020.6
2022-10-18T19:42:32.014Z,1020.7
2022-10-18T19:43:31.804Z,1020.7
2022-10-18T19:44:31.770Z,1020.7
2022-10-18T19:45:31.780Z,1020.7
2022-10-18T19:46:31.799Z,1020.6
2022-10-18T19:47:31.802Z,1020.7
2022-10-18T19:48:31.807Z,1020.7
2022-10-18T19:49:31.814Z,1020.7
2022-10-18T19:50:31.843Z,1020.6
2022-10-18T19:51:31.827Z,1020.7
2022-10-18T19:52:32.700Z,1020.6
2022-10-18T19:53:31.847Z,1020.7
2022-10-18T19:54:31.854Z,1020.6
2022-10-18T19:55:31.863Z,1020.6
2022-10-18T19:56:31.869Z,1020.7
2022-10-18T19:57:31.882Z,1020.6
2022-10-18T19:58:31.887Z,1020.7
2022-10-18T19:59:32.047Z,1020.7
2022-10-18T20:00:31.919Z,1020.7
2022-10-18T20:01:32.057Z,1020.8
2022-10-18T20:02:32.560Z,1020.7
2022-10-18T20:03:31.923Z,1020.8
2022-10-18T20:04:31.927Z,1020.8
2022-10-18T20:05:31.940Z,1020.7
2022-10-18T20:06:31.947Z,1020.7
2022-10-18T20:07:31.946Z,1020.8
2022-10-18T20:08:32.071Z,1020.8
2022-10-18T20:09:31.951Z,1020.8
2022-10-18T20:10:31.962Z,1020.8
2022-10-18T20:11:31.967Z,1020.7
2022-10-18T20:12:32.811Z,1020.8
2022-10-18T20:13:31.992Z,1020.7
2022-10-18T20:14:31.990Z,1020.7
2022-10-18T20:15:32.009Z,1020.7
2022-10-18T20:16:31.998Z,1020.8
2022-10-18T20:17:32.023Z,1020.7
2022-10-18T20:18:32.017Z,1020.8
2022-10-18T20:19:32.026Z,1020.7
2022-10-18T20:20:32.032Z,1020.8
2022-10-18T20:21:32.048Z,1020.9
2022-10-18T20:22:32.872Z,1020.9
2022-10-18T20:23:32.044Z,1020.9
2022-10-18T20:24:32.053Z,1020.9
2022-10-18T20:25:32.077Z,1020.8
2022-10-18T20:26:32.070Z,1020.8
2022-10-18T20:27:32.638Z,1020.9
2022-10-18T20:28:32.254Z,1021.0
2022-10-18T20:29:32.106Z,1020.9
2022-10-18T20:30:32.092Z,1020.9
2022-10-18T20:31:32.103Z,1020.9
2022-10-18T20:32:32.105Z,1020.9
2022-10-18T20:33:32.113Z,1020.9
2022-10-18T20:34:32.120Z,1020.9
2022-10-18T20:35:32.123Z,1020.9
2022-10-18T20:36:32.142Z,1021.0
2022-10-18T20:37:32.941Z,1020.9
2022-10-18T20:38:32.149Z,1020.9
2022-10-18T20:39:32.154Z,1020.9
2022-10-18T20:40:32.164Z,1020.9
2022-10-18T20:41:32.179Z,1020.9
2022-10-18T20:42:32.176Z,1021.0
2022-10-18T20:43:32.183Z,1020.9
2022-10-18T20:44:32.189Z,1020.9
2022-10-18T20:45:32.201Z,1021.0
2022-10-18T20:46:32.208Z,1020.9
2022-10-18T20:47:32.790Z,1020.9
2022-10-18T20:48:32.217Z,1020.9
2022-10-18T20:49:32.223Z,1020.9
2022-10-18T20:50:32.230Z,1020.8
2022-10-18T20:51:32.239Z,1020.9
2022-10-18T20:52:32.249Z,1020.9
2022-10-18T20:53:32.264Z,1020.8
2022-10-18T20:54:32.269Z,1020.9
2022-10-18T20:55:32.277Z,1020.9
2022-10-18T20:56:32.282Z,1020.8
2022-10-18T20:57:36.541Z,1020.8
2022-10-18T20:58:32.296Z,1020.9
2022-10-18T20:59:32.298Z,1020.8
2022-10-18T21:00:32.307Z,1020.9
2022-10-18T21:01:32.497Z,1020.9
2022-10-18T21:02:32.316Z,1020.9
2022-10-18T21:03:32.330Z,1020.9
2022-10-18T21:04:32.343Z,1020.9
2022-10-18T21:05:32.337Z,1020.9
2022-10-18T21:06:32.337Z,1021.0
2022-10-18T21:07:32.822Z,1020.9
2022-10-18T21:08:32.367Z,1021.0
2022-10-18T21:09:32.401Z,1020.9
2022-10-18T21:10:32.381Z,1021.0
2022-10-18T21:11:32.383Z,1021.0
2022-10-18T21:12:34.995Z,1020.9
2022-10-18T21:13:32.404Z,1021.0
2022-10-18T21:14:32.406Z,1020.8
2022-10-18T21:15:32.410Z,1020.9
2022-10-18T21:16:32.422Z,1021.0
2022-10-18T21:17:32.943Z,1020.9
2022-10-18T21:18:32.435Z,1021.0
2022-10-18T21:19:32.446Z,1020.9
2022-10-18T21:20:32.454Z,1020.9
2022-10-18T21:21:32.464Z,1020.9
2022-10-18T21:22:33.147Z,1020.9
2022-10-18T21:23:32.484Z,1020.9
2022-10-18T21:24:32.487Z,1020.9
2022-10-18T21:25:32.499Z,1021.0
2022-10-18T21:26:32.505Z,1021.0
2022-10-18T21:27:32.515Z,1021.0
2022-10-18T21:28:32.583Z,1020.9
2022-10-18T21:29:32.524Z,1020.9
2022-10-18T21:30:32.535Z,1020.9
2022-10-18T21:31:32.539Z,1020.9
2022-10-18T21:32:33.060Z,1020.9
2022-10-18T21:33:32.558Z,1020.8
2022-10-18T21:34:32.555Z,1020.9
2022-10-18T21:35:32.569Z,1020.8
2022-10-18T21:36:32.571Z,1020.9
2022-10-18T21:37:32.579Z,1020.8
2022-10-18T21:38:32.588Z,1020.8
2022-10-18T21:39:32.605Z,1020.8
2022-10-18T21:40:32.619Z,1020.8
2022-10-18T21:41:32.626Z,1020.8
2022-10-18T21:42:33.403Z,1020.7
2022-10-18T21:43:32.642Z,1020.8
2022-10-18T21:44:32.646Z,1020.7
2022-10-18T21:45:32.653Z,1020.7
2022-10-18T21:46:32.671Z,1020.7
2022-10-18T21:47:32.695Z,1020.8
2022-10-18T21:48:32.684Z,1020.8
2022-10-18T21:49:32.686Z,1020.8
2022-10-18T21:50:32.694Z,1020.9
2022-10-18T21:51:32.717Z,1020.8
2022-10-18T21:52:33.408Z,1020.9
2022-10-18T21:53:32.719Z,1020.9
2022-10-18T21:54:32.728Z,1020.9
2022-10-18T21:55:32.734Z,1020.9
2022-10-18T21:56:32.753Z,1020.9
2022-10-18T21:57:32.999Z,1020.8
2022-10-18T21:58:32.759Z,1020.8
2022-10-18T21:59:32.769Z,1020.9
2022-10-18T22:00:32.777Z,1020.8
2022-10-18T22:01:33.021Z,1020.8
2022-10-18T22:02:33.569Z,1020.8
2022-10-18T22:03:32.796Z,1020.8
2022-10-18T22:04:32.803Z,1020.6
2022-10-18T22:05:32.815Z,1020.8
2022-10-18T22:06:32.914Z,1020.7
2022-10-18T22:07:33.554Z,1020.7
2022-10-18T22:08:32.839Z,1020.8
2022-10-18T22:09:32.842Z,1020.8
2022-10-18T22:10:32.847Z,1020.7
2022-10-18T22:11:32.858Z,1020.7
2022-10-18T22:12:32.859Z,1020.8
2022-10-18T22:13:32.871Z,1020.7
2022-10-18T22:14:32.872Z,1020.8
2022-10-18T22:15:32.972Z,1020.8
2022-10-18T22:16:32.887Z,1020.8
2022-10-18T22:17:33.531Z,1020.9
2022-10-18T22:18:32.904Z,1020.8
2022-10-18T22:19:32.915Z,1020.8
2022-10-18T22:20:32.926Z,1020.8
2022-10-18T22:21:33.011Z,1020.8
2022-10-18T22:22:32.932Z,1020.8
2022-10-18T22:23:32.951Z,1020.9
2022-10-18T22:24:33.135Z,1020.9
2022-10-18T22:25:32.957Z,1020.8
2022-10-18T22:26:32.965Z,1020.9
2022-10-18T22:27:33.801Z,1021.0
2022-10-18T22:28:33.113Z,1020.9
2022-10-18T22:29:32.997Z,1021.1
2022-10-18T22:30:32.997Z,1020.9
2022-10-18T22:31:33.007Z,1020.9
2022-10-18T22:32:33.011Z,1020.8
2022-10-18T22:33:33.119Z,1020.8
2022-10-18T22:34:33.034Z,1020.7
2022-10-18T22:35:33.039Z,1020.8
2022-10-18T22:36:33.046Z,1020.8
2022-10-18T22:37:33.650Z,1020.7
2022-10-18T22:38:33.063Z,1020.8
2022-10-18T22:39:33.069Z,1020.7
2022-10-18T22:40:33.080Z,1020.8
2022-10-18T22:41:33.089Z,1020.8
2022-10-18T22:43:33.102Z,1020.8
2022-10-18T22:44:33.113Z,1020.8
2022-10-18T22:45:33.118Z,1020.7
2022-10-18T22:46:33.138Z,1020.7
2022-10-18T22:47:33.899Z,1020.8
2022-10-18T22:48:33.152Z,1020.8
2022-10-18T22:49:33.148Z,1020.8
2022-10-18T22:50:33.179Z,1020.8
2022-10-18T22:51:33.167Z,1020.7
2022-10-18T22:52:33.758Z,1020.7
2022-10-18T22:53:33.185Z,1020.7
2022-10-18T22:54:33.190Z,1020.6
2022-10-18T22:55:33.198Z,1020.7
2022-10-18T22:56:33.200Z,1020.7
2022-10-18T22:57:33.222Z,1020.5
2022-10-18T22:58:33.220Z,1020.7
2022-10-18T22:59:33.233Z,1020.7
2022-10-18T23:00:33.509Z,1020.7
2022-10-18T23:01:33.244Z,1020.5
2022-10-18T23:02:33.841Z,1020.6
2022-10-18T23:03:33.261Z,1020.6
2022-10-18T23:04:33.273Z,1020.5
2022-10-18T23:05:33.282Z,1020.5
2022-10-18T23:06:33.280Z,1020.6
2022-10-18T23:07:33.294Z,1020.5
2022-10-18T23:08:33.300Z,1020.6
2022-10-18T23:09:33.399Z,1020.6
2022-10-18T23:10:33.321Z,1020.6
2022-10-18T23:11:33.324Z,1020.6
2022-10-18T23:12:33.928Z,1020.6
2022-10-18T23:13:39.423Z,1020.6
2022-10-18T23:14:33.352Z,1020.6
2022-10-18T23:15:33.846Z,1020.5
2022-10-18T23:16:33.369Z,1020.6
2022-10-18T23:17:33.820Z,1020.6
2022-10-18T23:18:33.623Z,1020.6
2022-10-18T23:19:33.399Z,1020.7
2022-10-18T23:20:33.401Z,1020.6
2022-10-18T23:21:33.407Z,1020.7
2022-10-18T23:22:33.854Z,1020.7
2022-10-18T23:23:33.428Z,1020.7
2022-10-18T23:24:34.007Z,1020.7
2022-10-18T23:25:33.444Z,1020.7
2022-10-18T23:26:33.451Z,1020.7
2022-10-18T23:27:33.606Z,1020.7
2022-10-18T23:28:33.557Z,1020.7
2022-10-18T23:29:33.472Z,1020.8
2022-10-18T23:30:33.474Z,1020.8
2022-10-18T23:31:33.480Z,1020.8
2022-10-18T23:32:33.964Z,1020.8
2022-10-18T23:33:33.498Z,1020.8
2022-10-18T23:34:33.509Z,1020.8
2022-10-18T23:35:33.516Z,1020.8
2022-10-18T23:36:33.782Z,1020.8
2022-10-18T23:37:34.169Z,1020.9
2022-10-18T23:38:33.548Z,1020.9
2022-10-18T23:39:33.558Z,1020.8
2022-10-18T23:40:33.565Z,1020.9
2022-10-18T23:41:33.571Z,1020.9
2022-10-18T23:42:33.587Z,1020.9
2022-10-18T23:43:33.586Z,1020.9
2022-10-18T23:44:33.593Z,1020.9
2022-10-18T23:45:33.617Z,1020.9
2022-10-18T23:46:33.606Z,1020.9
2022-10-18T23:47:34.165Z,1020.9
2022-10-18T23:48:33.619Z,1020.9
2022-10-18T23:49:33.670Z,1021.0
2022-10-18T23:50:33.634Z,1020.9
2022-10-18T23:51:33.640Z,1020.9
2022-10-18T23:52:33.659Z,1021.0
2022-10-18T23:53:33.653Z,1020.9
2022-10-18T23:54:33.780Z,1020.8
2022-10-18T23:55:33.679Z,1020.8
2022-10-18T23:56:33.678Z,1020.8
2022-10-18T23:57:34.417Z,1020.8
2022-10-18T23:58:33.694Z,1020.8
2022-10-18T23:59:33.702Z,1020.8
